Time;durP1;ratioP1;P1;durP2;ratioP2;P2;SDS_P1;SDS_P2;PMS_P1;PMS_P2;Temp;Humidity;BMP_temperature;BMP_pressure;BME280_temperature;BME280_humidity;BME280_pressure;Samples;Min_cycle;Max_cycle;Signal;HPM_P1;HPM_P2
2024/01/28 00:01:34;;;;;;;22.70;8.85;;;;;;;-142.43;100.00;63430.59;6158794;23;20028;-82
2024/01/28 00:04:01;;;;;;;19.02;9.48;;;;;;;-142.43;100.00;63430.59;6159729;23;20072;-83
2024/01/28 00:06:28;;;;;;;18.10;8.32;;;;;;;-142.43;100.00;63430.59;6159995;23;20099;-82
2024/01/28 00:08:54;;;;;;;21.52;8.65;;;;;;;-142.43;100.00;63430.59;6160110;23;20025;-82
2024/01/28 00:11:21;;;;;;;17.83;8.25;;;;;;;-142.43;100.00;63430.59;6160168;23;20053;-83
2024/01/28 00:13:48;;;;;;;24.08;10.55;;;;;;;-142.43;100.00;63430.59;6163500;23;20049;-82
2024/01/28 00:16:16;;;;;;;17.90;8.07;;;;;;;-142.43;100.00;63430.59;6163896;23;20056;-82
2024/01/28 00:18:43;;;;;;;23.98;8.57;;;;;;;-142.43;100.00;63430.59;6165989;23;20021;-81
2024/01/28 00:21:10;;;;;;;17.30;8.25;;;;;;;-142.43;100.00;63430.59;6165038;23;20022;-81
2024/01/28 00:23:37;;;;;;;18.85;7.97;;;;;;;-142.43;100.00;63430.59;6160524;23;20025;-81
2024/01/28 00:26:04;;;;;;;15.02;8.35;;;;;;;-142.43;100.00;63430.59;6160633;23;20099;-81
2024/01/28 00:28:31;;;;;;;27.23;8.80;;;;;;;-142.43;100.00;63430.59;6160221;23;20133;-81
2024/01/28 00:30:57;;;;;;;18.60;7.88;;;;;;;-142.43;100.00;63430.59;6160089;23;20018;-81
2024/01/28 00:33:26;;;;;;;26.55;7.97;;;;;;;-142.43;100.00;63430.59;6160909;23;20100;-81
2024/01/28 00:35:52;;;;;;;17.95;8.13;;;;;;;-142.43;100.00;63430.59;6163055;23;20429;-81
2024/01/28 00:38:19;;;;;;;17.30;7.65;;;;;;;-142.43;100.00;63430.59;6163308;23;20026;-81
2024/01/28 00:40:45;;;;;;;20.00;8.10;;;;;;;-142.43;100.00;63430.59;6163164;23;20028;-81
2024/01/28 00:43:12;;;;;;;23.20;7.63;;;;;;;-142.43;100.00;63430.59;6163016;23;20025;-81
2024/01/28 00:45:40;;;;;;;20.52;8.68;;;;;;;-142.43;100.00;63430.59;6163874;23;20060;-80
2024/01/28 00:48:06;;;;;;;15.02;7.25;;;;;;;-142.43;100.00;63430.59;6163581;23;20040;-79
2024/01/28 00:50:34;;;;;;;19.98;7.63;;;;;;;-142.43;100.00;63430.59;6164161;23;20427;-80
2024/01/28 00:53:01;;;;;;;18.33;7.70;;;;;;;-142.43;100.00;63430.59;6163593;23;20021;-80
2024/01/28 00:55:28;;;;;;;19.08;7.47;;;;;;;-142.43;100.00;63430.59;6164541;23;20026;-79
2024/01/28 00:57:55;;;;;;;16.80;7.32;;;;;;;-142.43;100.00;63430.59;6163624;23;20451;-81
2024/01/28 01:00:22;;;;;;;19.55;8.00;;;;;;;-142.43;100.00;63430.59;6162863;23;20101;-80
2024/01/28 01:02:48;;;;;;;17.33;7.72;;;;;;;-142.43;100.00;63430.59;6162046;23;20025;-80
2024/01/28 01:05:15;;;;;;;23.38;7.60;;;;;;;-142.43;100.00;63430.59;6163109;23;20047;-79
2024/01/28 01:07:43;;;;;;;15.75;7.20;;;;;;;-142.43;100.00;63430.59;6162167;23;20061;-80
2024/01/28 01:10:10;;;;;;;26.92;7.57;;;;;;;-142.43;100.00;63430.59;6163411;23;20021;-80
2024/01/28 01:12:36;;;;;;;14.48;7.55;;;;;;;-142.43;100.00;63430.59;6162539;23;20026;-80
2024/01/28 01:15:07;;;;;;;21.35;7.93;;;;;;;-142.43;100.00;63430.59;6163865;23;20109;-80
2024/01/28 01:17:34;;;;;;;18.27;7.45;;;;;;;-142.43;100.00;63430.59;6166203;23;20544;-79
2024/01/28 01:20:01;;;;;;;21.45;7.50;;;;;;;-142.43;100.00;63430.59;6168344;23;20025;-79
2024/01/28 01:22:27;;;;;;;21.98;8.02;;;;;;;-142.43;100.00;63430.59;6169017;23;20029;-79
2024/01/28 01:24:55;;;;;;;22.25;8.15;;;;;;;-142.43;100.00;63430.59;6171713;23;20033;-80
2024/01/28 01:27:22;;;;;;;15.10;7.07;;;;;;;-142.43;100.00;63430.59;6170438;23;20025;-80
2024/01/28 01:29:48;;;;;;;18.58;8.05;;;;;;;-142.43;100.00;63430.59;6170750;23;20022;-78
2024/01/28 01:32:16;;;;;;;15.50;7.45;;;;;;;-142.43;100.00;63430.59;6169614;23;20036;-80
2024/01/28 01:34:42;;;;;;;18.88;7.70;;;;;;;-142.43;100.00;63430.59;6168631;23;20029;-80
2024/01/28 01:37:09;;;;;;;16.58;7.68;;;;;;;-142.43;100.00;63430.59;6174091;23;20025;-81
2024/01/28 01:39:36;;;;;;;16.40;7.47;;;;;;;-142.43;100.00;63430.59;6175675;23;20072;-80
2024/01/28 01:42:04;;;;;;;24.98;7.90;;;;;;;-142.43;100.00;63430.59;6176071;23;20183;-81
2024/01/28 01:44:31;;;;;;;17.85;7.45;;;;;;;-142.43;100.00;63430.59;6174637;23;20026;-81
2024/01/28 01:46:58;;;;;;;16.70;7.43;;;;;;;-142.43;100.00;63430.59;6173874;23;20025;-80
2024/01/28 01:49:25;;;;;;;17.48;7.47;;;;;;;-142.43;100.00;63430.59;6172888;23;20025;-81
2024/01/28 01:51:51;;;;;;;13.05;7.25;;;;;;;-142.43;100.00;63430.59;6167155;23;20033;-81
2024/01/28 01:54:18;;;;;;;13.27;6.80;;;;;;;-142.43;100.00;63430.59;6164895;23;20498;-81
2024/01/28 01:56:46;;;;;;;15.43;7.07;;;;;;;-142.43;100.00;63430.59;6164587;23;20025;-82
2024/01/28 01:59:15;;;;;;;20.42;8.23;;;;;;;-142.43;100.00;63430.59;6164369;23;20021;-82
2024/01/28 02:01:44;;;;;;;15.05;7.30;;;;;;;-142.43;100.00;63430.59;6164055;23;20022;-81
2024/01/28 02:04:11;;;;;;;17.92;7.65;;;;;;;-142.43;100.00;63430.59;6164211;23;20021;-81
2024/01/28 02:06:38;;;;;;;20.60;8.13;;;;;;;-142.43;100.00;63430.59;6164827;23;20026;-79
2024/01/28 02:09:06;;;;;;;19.88;7.38;;;;;;;-142.43;100.00;63430.59;6164694;23;20025;-81
2024/01/28 02:11:33;;;;;;;22.90;7.60;;;;;;;-142.43;100.00;63430.59;6165548;23;20018;-81
2024/01/28 02:13:59;;;;;;;18.88;7.80;;;;;;;-142.43;100.00;63430.59;6165201;23;20026;-82
2024/01/28 02:16:27;;;;;;;22.75;8.57;;;;;;;-142.43;100.00;63430.59;6162203;23;20041;-82
2024/01/28 02:18:54;;;;;;;16.88;6.72;;;;;;;-142.43;100.00;63430.59;6161588;23;20028;-82
2024/01/28 02:21:21;;;;;;;18.58;7.38;;;;;;;-142.43;100.00;63430.59;6162361;23;20049;-81
2024/01/28 02:23:49;;;;;;;20.30;6.82;;;;;;;-142.43;100.00;63430.59;6162536;23;20036;-81
2024/01/28 02:26:15;;;;;;;17.70;7.07;;;;;;;-142.43;100.00;63430.59;6161563;23;20561;-81
2024/01/28 02:28:42;;;;;;;19.35;7.45;;;;;;;-142.43;100.00;63430.59;6160740;23;20339;-81
2024/01/28 02:31:09;;;;;;;18.60;7.35;;;;;;;-142.43;100.00;63430.59;6161111;23;20032;-80
2024/01/28 02:33:35;;;;;;;15.75;7.28;;;;;;;-142.43;100.00;63430.59;6160800;23;20041;-81
2024/01/28 02:36:02;;;;;;;19.23;7.32;;;;;;;-142.43;100.00;63430.59;6160431;23;20026;-80
2024/01/28 02:38:28;;;;;;;16.38;7.28;;;;;;;-142.43;100.00;63430.59;6160165;23;20026;-80
2024/01/28 02:40:56;;;;;;;17.27;6.90;;;;;;;-142.43;100.00;63430.59;6160145;23;20018;-79
2024/01/28 02:43:23;;;;;;;20.00;7.53;;;;;;;-142.43;100.00;63430.59;6160493;23;20026;-81
2024/01/28 02:45:50;;;;;;;13.23;6.70;;;;;;;-142.43;100.00;63430.59;6160146;23;20026;-81
2024/01/28 02:48:16;;;;;;;19.63;7.63;;;;;;;-142.43;100.00;63430.59;6159458;23;20028;-80
2024/01/28 02:50:43;;;;;;;19.30;7.00;;;;;;;-142.43;100.00;63430.59;6159794;23;20088;-80
2024/01/28 02:53:10;;;;;;;19.15;6.82;;;;;;;-142.43;100.00;63430.59;6159574;23;20056;-81
2024/01/28 02:55:36;;;;;;;18.15;6.90;;;;;;;-142.43;100.00;63430.59;6159808;23;20025;-81
2024/01/28 02:58:05;;;;;;;16.98;6.90;;;;;;;-142.43;100.00;63430.59;6157108;23;20056;-80
2024/01/28 03:00:31;;;;;;;18.25;7.22;;;;;;;-142.43;100.00;63430.59;6159130;23;20492;-81
2024/01/28 03:02:58;;;;;;;18.23;6.43;;;;;;;-142.43;100.00;63430.59;6159101;23;20061;-80
2024/01/28 03:05:28;;;;;;;18.83;6.70;;;;;;;-142.43;100.00;63430.59;6158984;23;20501;-81
2024/01/28 03:07:54;;;;;;;20.77;6.80;;;;;;;-142.43;100.00;63430.59;6158522;23;20060;-80
2024/01/28 03:10:21;;;;;;;18.00;7.97;;;;;;;-142.43;100.00;63430.59;6158737;23;20052;-80
2024/01/28 03:12:49;;;;;;;17.05;6.78;;;;;;;-142.43;100.00;63430.59;6160066;23;20025;-81
2024/01/28 03:15:18;;;;;;;15.05;6.72;;;;;;;-142.43;100.00;63430.59;6159404;23;20025;-81
2024/01/28 03:17:44;;;;;;;14.73;6.13;;;;;;;-142.43;100.00;63430.59;6158648;23;20036;-81
2024/01/28 03:20:12;;;;;;;17.13;6.38;;;;;;;-142.43;100.00;63430.59;6160066;23;20021;-80
2024/01/28 03:22:39;;;;;;;17.02;6.68;;;;;;;-142.43;100.00;63430.59;6160285;23;20123;-80
2024/01/28 03:25:06;;;;;;;15.40;6.63;;;;;;;-142.43;100.00;63430.59;6159929;23;20072;-80
2024/01/28 03:27:33;;;;;;;17.55;6.57;;;;;;;-142.43;100.00;63430.59;6159849;23;20327;-81
2024/01/28 03:30:00;;;;;;;20.05;6.82;;;;;;;-142.43;100.00;63430.59;6160694;23;20053;-81
2024/01/28 03:32:28;;;;;;;19.40;6.90;;;;;;;-142.43;100.00;63430.59;6163451;23;20025;-80
2024/01/28 03:34:54;;;;;;;13.88;7.38;;;;;;;-142.43;100.00;63430.59;6164706;23;20051;-80
2024/01/28 03:37:21;;;;;;;19.65;7.43;;;;;;;-142.43;100.00;63430.59;6166896;23;20025;-80
2024/01/28 03:39:47;;;;;;;18.88;6.97;;;;;;;-142.43;100.00;63430.59;6163412;23;20025;-81
2024/01/28 03:42:14;;;;;;;15.30;6.65;;;;;;;-142.43;100.00;63430.59;6160671;23;20021;-80
2024/01/28 03:44:41;;;;;;;17.75;7.00;;;;;;;-142.43;100.00;63430.59;6160829;23;20025;-81
2024/01/28 03:47:07;;;;;;;14.80;6.40;;;;;;;-142.43;100.00;63430.59;6160909;23;20037;-80
2024/01/28 03:49:35;;;;;;;19.95;6.43;;;;;;;-142.43;100.00;63430.59;6162402;23;20026;-81
2024/01/28 03:52:02;;;;;;;13.10;6.85;;;;;;;-142.43;100.00;63430.59;6161841;23;20021;-80
2024/01/28 03:54:29;;;;;;;16.25;6.75;;;;;;;-142.43;100.00;63430.59;6158961;23;20064;-82
2024/01/28 03:56:55;;;;;;;17.15;6.57;;;;;;;-142.43;100.00;63430.59;6160359;23;20025;-81
2024/01/28 03:59:22;;;;;;;17.05;6.72;;;;;;;-142.43;100.00;63430.59;6161123;23;20366;-81
2024/01/28 04:01:49;;;;;;;15.40;6.70;;;;;;;-142.43;100.00;63430.59;6159565;23;20021;-81
2024/01/28 04:04:15;;;;;;;15.38;6.25;;;;;;;-142.43;100.00;63430.59;6157877;23;20080;-81
2024/01/28 04:06:44;;;;;;;18.80;6.65;;;;;;;-142.43;100.00;63430.59;6157851;23;20101;-80
2024/01/28 04:09:11;;;;;;;15.25;6.57;;;;;;;-142.43;100.00;63430.59;6156294;23;20027;-80
2024/01/28 04:11:38;;;;;;;13.60;6.82;;;;;;;-142.43;100.00;63430.59;6157776;23;20027;-80
2024/01/28 04:14:05;;;;;;;17.42;6.55;;;;;;;-142.43;100.00;63430.59;6156809;23;20033;-81
2024/01/28 04:16:32;;;;;;;19.55;5.90;;;;;;;-142.43;100.00;63430.59;6157365;23;20030;-80
2024/01/28 04:18:59;;;;;;;19.92;6.50;;;;;;;-142.43;100.00;63430.59;6158301;23;20028;-81
2024/01/28 04:21:26;;;;;;;18.85;6.40;;;;;;;-142.43;100.00;63430.59;6157778;23;20022;-81
2024/01/28 04:23:56;;;;;;;16.38;6.72;;;;;;;-142.43;100.00;63430.59;6157007;23;20365;-80
2024/01/28 04:26:23;;;;;;;17.30;6.57;;;;;;;-142.43;100.00;63430.59;6157088;23;20358;-81
2024/01/28 04:28:49;;;;;;;17.60;5.90;;;;;;;-142.43;100.00;63430.59;6157392;23;20026;-82
2024/01/28 04:31:16;;;;;;;19.35;6.30;;;;;;;-142.43;100.00;63430.59;6156562;23;20017;-80
2024/01/28 04:33:45;;;;;;;16.85;7.25;;;;;;;-142.43;100.00;63430.59;6156782;23;20048;-81
2024/01/28 04:36:11;;;;;;;17.42;6.68;;;;;;;-142.43;100.00;63430.59;6155851;23;20275;-80
2024/01/28 04:38:38;;;;;;;12.27;6.60;;;;;;;-142.43;100.00;63430.59;6156253;23;20101;-81
2024/01/28 04:41:06;;;;;;;16.35;6.60;;;;;;;-142.43;100.00;63430.59;6156543;23;20026;-81
2024/01/28 04:43:33;;;;;;;14.85;7.35;;;;;;;-142.43;100.00;63430.59;6156550;23;20056;-81
2024/01/28 04:45:59;;;;;;;22.73;6.32;;;;;;;-142.43;100.00;63430.59;6156308;23;20338;-81
2024/01/28 04:48:26;;;;;;;15.07;6.13;;;;;;;-142.43;100.00;63430.59;6156999;23;20223;-81
2024/01/28 04:50:52;;;;;;;14.60;6.22;;;;;;;-142.43;100.00;63430.59;6156564;23;20095;-81
2024/01/28 04:53:19;;;;;;;13.32;5.72;;;;;;;-142.43;100.00;63430.59;6155996;23;20025;-81
2024/01/28 04:55:46;;;;;;;17.30;6.38;;;;;;;-142.43;100.00;63430.59;6157705;23;20022;-81
2024/01/28 04:58:13;;;;;;;16.55;6.38;;;;;;;-142.43;100.00;63430.59;6155296;23;20052;-81
2024/01/28 05:00:40;;;;;;;18.55;7.15;;;;;;;-142.43;100.00;63430.59;6155738;23;20060;-82
2024/01/28 05:03:07;;;;;;;13.45;6.65;;;;;;;-142.43;100.00;63430.59;6155963;23;20061;-82
2024/01/28 05:05:34;;;;;;;13.10;6.13;;;;;;;-142.43;100.00;63430.59;6155776;23;20064;-82
2024/01/28 05:08:00;;;;;;;20.73;8.13;;;;;;;-142.43;100.00;63430.59;6154525;23;20025;-82
2024/01/28 05:10:27;;;;;;;12.80;6.68;;;;;;;-142.43;100.00;63430.59;6155525;23;20025;-81
2024/01/28 05:12:54;;;;;;;16.08;6.97;;;;;;;-142.43;100.00;63430.59;6155507;23;20026;-81
2024/01/28 05:15:22;;;;;;;13.27;6.43;;;;;;;-142.43;100.00;63430.59;6155920;23;20362;-81
2024/01/28 05:17:51;;;;;;;15.10;6.78;;;;;;;-142.43;100.00;63430.59;6157077;23;20154;-82
2024/01/28 05:20:21;;;;;;;16.50;6.55;;;;;;;-142.43;100.00;63430.59;6158972;23;20362;-81
2024/01/28 06:45:25;;;;;;;15.68;6.28;;;;;;;-142.43;100.00;63430.59;6086483;23;20055;-86
2024/01/28 06:47:58;;;;;;;13.95;5.70;;;;;;;-142.43;100.00;63430.59;6118478;23;20023;-84
2024/01/28 06:50:48;;;;;;;;;;;;;;;-142.43;100.00;63430.59;6116876;23;20022;-83
2024/01/28 06:53:58;;;;;;;;;;;;;;;;;;;;;
2024/01/28 08:07:45;;;;;;;10.35;5.05;;;;;;;-142.43;100.00;63430.59;6044555;23;20432;-81
2024/01/28 08:10:43;;;;;;;13.05;5.32;;;;;;;-142.43;100.00;63430.59;6135752;23;20026;-84
2024/01/28 08:42:15;;;;;;;10.00;5.82;;;;;;;-142.43;100.00;63430.59;6115505;23;20039;-84
2024/01/28 08:44:59;;;;;;;17.42;5.78;;;;;;;-142.43;100.00;63430.59;6126849;23;20022;-83
2024/01/28 08:53:34;;;;;;;12.15;5.75;;;;;;;-142.43;100.00;63430.59;6125968;23;20011;-80
2024/01/28 08:56:05;;;;;;;10.82;5.30;;;;;;;-142.43;100.00;63430.59;6126888;23;20458;-80
2024/01/28 08:58:33;;;;;;;15.10;6.15;;;;;;;-142.43;100.00;63430.59;6125850;23;20041;-79
2024/01/28 09:01:02;;;;;;;11.48;5.68;;;;;;;-142.43;100.00;63430.59;6127780;23;20085;-78
2024/01/28 09:03:36;;;;;;;13.27;5.72;;;;;;;-142.43;100.00;63430.59;6125906;23;20376;-77
2024/01/28 09:06:14;;;;;;;15.95;6.15;;;;;;;-142.43;100.00;63430.59;6127830;23;20033;-78
2024/01/28 09:08:44;;;;;;;11.27;5.63;;;;;;;-142.43;100.00;63430.59;6126227;23;20053;-78
2024/01/28 09:11:22;;;;;;;12.27;5.60;;;;;;;-142.43;100.00;63430.59;6127178;23;20018;-78
2024/01/28 09:13:54;;;;;;;14.00;5.57;;;;;;;-142.43;100.00;63430.59;6130718;23;20025;-77
2024/01/28 09:16:31;;;;;;;8.60;5.40;;;;;;;-142.43;100.00;63430.59;6130321;23;20025;-79
2024/01/28 09:19:03;;;;;;;11.15;5.05;;;;;;;-142.43;100.00;63430.59;6127833;23;20022;-79
2024/01/28 09:21:31;;;;;;;11.95;6.25;;;;;;;-142.43;100.00;63430.59;6127341;23;20150;-78
2024/01/28 09:23:58;;;;;;;12.18;5.50;;;;;;;-142.43;100.00;63430.59;6127483;23;20467;-78
2024/01/28 09:26:28;;;;;;;14.40;6.00;;;;;;;-142.43;100.00;63430.59;6127389;23;20077;-79
2024/01/28 09:28:56;;;;;;;10.48;5.35;;;;;;;-142.43;100.00;63430.59;6126567;23;20080;-78
2024/01/28 09:31:33;;;;;;;13.50;5.68;;;;;;;-142.43;100.00;63430.59;6127377;23;20077;-79
2024/01/28 09:34:02;;;;;;;9.77;5.95;;;;;;;-142.43;100.00;63430.59;6126072;23;20022;-78
2024/01/28 09:36:52;;;;;;;10.60;5.55;;;;;;;-142.43;100.00;63430.59;6126946;23;20045;-80
2024/01/28 09:39:25;;;;;;;9.30;5.22;;;;;;;-142.43;100.00;63430.59;6125871;23;20014;-79
2024/01/28 09:42:21;;;;;;;13.82;5.40;;;;;;;-142.43;100.00;63430.59;6127145;23;20033;-77
2024/01/28 09:45:11;;;;;;;15.57;5.70;;;;;;;-142.43;100.00;63430.59;6127654;23;20324;-78
2024/01/28 11:34:19;;;;;;;9.98;5.13;;;;;;;-142.43;100.00;63430.59;6133009;23;20336;-83
2024/01/28 11:36:51;;;;;;;11.40;5.13;;;;;;;-142.43;100.00;63430.59;6139750;23;20025;-83
2024/01/28 11:39:42;;;;;;;12.52;5.40;;;;;;;-142.43;100.00;63430.59;6132704;23;20026;-84
2024/01/28 11:42:18;;;;;;;7.32;6.18;;;;;;;-142.43;100.00;63430.59;6135137;23;20045;-83
2024/01/28 11:44:47;;;;;;;12.93;5.32;;;;;;;-142.43;100.00;63430.59;6135176;23;20026;-84
2024/01/28 11:47:14;;;;;;;11.50;5.20;;;;;;;-142.43;100.00;63430.59;6129818;23;20105;-81
2024/01/28 11:49:44;;;;;;;10.50;5.53;;;;;;;-142.43;100.00;63430.59;6128628;23;20037;-80
2024/01/28 11:52:11;;;;;;;10.52;5.35;;;;;;;-142.43;100.00;63430.59;6128603;23;20152;-80
2024/01/28 11:54:38;;;;;;;11.88;5.07;;;;;;;-142.43;100.00;63430.59;6129175;23;20032;-81
2024/01/28 11:57:06;;;;;;;11.43;5.95;;;;;;;-142.43;100.00;63430.59;6129627;23;20026;-81
2024/01/28 11:59:38;;;;;;;14.77;6.20;;;;;;;-142.43;100.00;63430.59;6130811;23;20032;-81
2024/01/28 12:02:08;;;;;;;9.07;5.60;;;;;;;-142.43;100.00;63430.59;6130659;23;20057;-80
2024/01/28 12:04:35;;;;;;;8.95;5.40;;;;;;;-142.43;100.00;63430.59;6127882;23;20037;-84
2024/01/28 12:07:03;;;;;;;7.80;5.28;;;;;;;-142.43;100.00;63430.59;6127706;23;20026;-80
2024/01/28 12:09:32;;;;;;;12.05;4.97;;;;;;;-142.43;100.00;63430.59;6129184;23;20338;-81
2024/01/28 12:11:59;;;;;;;8.95;5.00;;;;;;;-142.43;100.00;63430.59;6128767;23;20061;-80
2024/01/28 12:14:26;;;;;;;12.95;5.63;;;;;;;-142.43;100.00;63430.59;6128934;23;20022;-81
2024/01/28 12:16:54;;;;;;;9.95;5.00;;;;;;;-142.43;100.00;63430.59;6128526;23;20525;-83
2024/01/28 12:19:20;;;;;;;7.22;4.60;;;;;;;-142.43;100.00;63430.59;6129940;23;20419;-82
2024/01/28 12:21:48;;;;;;;8.95;4.70;;;;;;;-142.43;100.00;63430.59;6132040;23;20041;-83
2024/01/28 12:24:16;;;;;;;7.22;4.35;;;;;;;-142.43;100.00;63430.59;6131024;23;20030;-82
2024/01/28 12:26:43;;;;;;;6.35;4.22;;;;;;;-142.43;100.00;63430.59;6130042;23;20049;-81
2024/01/28 12:29:10;;;;;;;8.82;4.55;;;;;;;-142.43;100.00;63430.59;6129217;23;20426;-81
2024/01/28 12:31:37;;;;;;;6.90;4.50;;;;;;;-142.43;100.00;63430.59;6130382;23;20049;-82
2024/01/28 12:34:16;;;;;;;6.50;4.40;;;;;;;-142.43;100.00;63430.59;6129577;23;20026;-81
2024/01/28 12:36:49;;;;;;;7.32;4.50;;;;;;;-142.43;100.00;63430.59;6133521;23;20028;-81
2024/01/28 12:39:17;;;;;;;9.35;4.63;;;;;;;-142.43;100.00;63430.59;6131214;23;20411;-82
2024/01/28 12:41:45;;;;;;;8.10;4.90;;;;;;;-142.43;100.00;63430.59;6128673;23;20367;-83
2024/01/28 12:44:12;;;;;;;10.40;4.93;;;;;;;-142.43;100.00;63430.59;6127939;23;20056;-82
2024/01/28 12:46:39;;;;;;;8.38;5.22;;;;;;;-142.43;100.00;63430.59;6129656;23;20030;-79
2024/01/28 12:49:05;;;;;;;10.95;5.35;;;;;;;-142.43;100.00;63430.59;6129952;23;20026;-81
2024/01/28 12:51:34;;;;;;;9.32;5.10;;;;;;;-142.43;100.00;63430.59;6130551;23;20354;-82
2024/01/28 12:54:01;;;;;;;9.82;5.32;;;;;;;-142.43;100.00;63430.59;6130674;23;20029;-81
2024/01/28 12:56:29;;;;;;;10.75;5.35;;;;;;;-142.43;100.00;63430.59;6128751;23;20050;-81
2024/01/28 12:58:58;;;;;;;8.32;5.82;;;;;;;-142.43;100.00;63430.59;6129205;23;20028;-82
2024/01/28 13:01:25;;;;;;;8.88;4.63;;;;;;;-142.43;100.00;63430.59;6129442;23;20525;-82
2024/01/28 13:03:51;;;;;;;9.02;4.75;;;;;;;-142.43;100.00;63430.59;6129414;23;20045;-81
2024/01/28 13:06:18;;;;;;;8.15;4.70;;;;;;;-142.43;100.00;63430.59;6128988;23;20029;-81
2024/01/28 13:08:45;;;;;;;7.43;4.60;;;;;;;-142.43;100.00;63430.59;6128903;23;20022;-82
2024/01/28 13:11:11;;;;;;;9.32;4.70;;;;;;;-142.43;100.00;63430.59;6128286;23;20082;-80
2024/01/28 13:13:41;;;;;;;8.32;4.32;;;;;;;-142.43;100.00;63430.59;6128328;23;20093;-81
2024/01/28 13:16:08;;;;;;;8.95;5.13;;;;;;;-142.43;100.00;63430.59;6126971;23;20596;-82
2024/01/28 13:18:37;;;;;;;7.55;4.35;;;;;;;-142.43;100.00;63430.59;6127805;23;20026;-81
2024/01/28 13:21:04;;;;;;;7.53;4.28;;;;;;;-142.43;100.00;63430.59;6127853;23;20064;-80
2024/01/28 13:23:34;;;;;;;9.40;4.60;;;;;;;-142.43;100.00;63430.59;6126220;23;20045;-81
2024/01/28 13:26:01;;;;;;;8.13;4.22;;;;;;;-142.43;100.00;63430.59;6126140;23;20466;-81
2024/01/28 13:28:27;;;;;;;8.93;3.95;;;;;;;-142.43;100.00;63430.59;6126281;23;20426;-81
2024/01/28 13:30:58;;;;;;;6.68;3.88;;;;;;;-142.43;100.00;63430.59;6126764;23;20096;-81
2024/01/28 13:33:25;;;;;;;6.15;4.25;;;;;;;-142.43;100.00;63430.59;6136880;23;20054;-81
2024/01/28 13:35:52;;;;;;;8.32;4.32;;;;;;;-142.43;100.00;63430.59;6136688;23;20105;-83
2024/01/28 13:38:18;;;;;;;8.27;4.05;;;;;;;-142.43;100.00;63430.59;6143924;23;20037;-82
2024/01/28 13:43:33;;;;;;;10.07;4.57;;;;;;;;;;5122949;27;20431;-81
2024/01/28 13:45:59;;;;;;;8.18;3.92;;;;;;;;;;5092890;28;20109;-82
2024/01/28 13:48:26;;;;;;;8.07;4.05;;;;;;;;;;5094155;28;20079;-82
2024/01/28 13:50:52;;;;;;;10.63;4.07;;;;;;;;;;5092374;28;20087;-81
2024/01/28 13:53:19;;;;;;;6.70;3.80;;;;;;;;;;5095470;28;20051;-82
2024/01/28 13:56:02;;;;;;;6.85;4.10;;;;;;;;;;5098483;22;20076;-85
2024/01/28 13:58:52;;;;;;;6.57;3.67;;;;;;;;;;5056576;28;20130;-85
2024/01/28 14:04:15;;;;;;;6.78;4.00;;;;;;;;;;5055023;28;20092;-86
2024/01/28 14:09:59;;;;;;;7.50;4.30;;;;;;;;;;5010084;28;20076;-86
2024/01/28 14:15:28;;;;;;;7.05;3.90;;;;;;;;;;5035586;28;20076;-86
2024/01/28 14:18:23;;;;;;;;;;;;;;;;;;;;;
2024/01/28 14:21:16;;;;;;;8.13;4.05;;;;;;;;;;5042711;28;20061;-88
2024/01/28 14:26:44;;;;;;;6.47;4.10;;;;;;;;;;5053438;22;20069;-85
2024/01/28 14:32:11;;;;;;;8.60;4.38;;;;;;;;;;5035846;28;20504;-87
2024/01/28 14:34:48;;;;;;;7.68;4.85;;;;;;;;;;5041939;28;20050;-86
2024/01/28 14:40:41;;;;;;;7.75;4.40;;;;;;;;;;5034094;28;20053;-87
2024/01/28 14:43:23;;;;;;;9.10;5.13;;;;;;;;;;5036929;28;20072;-86
2024/01/28 14:46:11;;;;;;;8.60;4.35;;;;;;;;;;5029183;28;20119;-86
2024/01/28 14:48:44;;;;;;;8.77;4.70;;;;;;;;;;5025896;28;20058;-86
2024/01/28 14:51:41;;;;;;;;;;;;;;;;;;;;;
2024/01/28 14:54:17;;;;;;;11.60;4.60;;;;;;;;;;5013357;28;20072;-86
2024/01/28 14:57:18;;;;;;;7.13;4.43;;;;;;;;;;5001706;28;20110;-86
2024/01/28 15:02:51;;;;;;;6.00;4.70;;;;;;;;;;5034490;28;20058;-87
2024/01/28 15:05:25;;;;;;;8.18;4.35;;;;;;;;;;5026896;28;20076;-88
2024/01/28 15:08:08;;;;;;;;;;;;;;;;;;;;;
2024/01/28 15:19:10;;;;;;;7.60;4.45;;;;;;;;;;5016459;28;20061;-86
2024/01/28 15:21:38;;;;;;;6.85;4.32;;;;;;;;;;5021440;28;20049;-86
2024/01/28 15:24:06;;;;;;;8.65;4.63;;;;;;;;;;5021537;28;20049;-85
2024/01/28 15:26:33;;;;;;;9.15;4.40;;;;;;;;;;5020532;28;20116;-86
2024/01/28 15:29:00;;;;;;;6.55;4.28;;;;;;;;;;5020942;28;20122;-88
2024/01/28 15:37:08;;;;;;;8.23;4.32;;;;;;;;;;5067452;22;20079;-85
2024/01/28 15:42:39;;;;;;;10.25;5.03;;;;;;;;;;5061563;28;20037;-86
2024/01/28 15:45:29;;;;;;;8.45;4.50;;;;;;;;;;5056356;28;20052;-86
2024/01/28 15:47:56;;;;;;;9.70;4.97;;;;;;;;;;5071811;22;20111;-80
2024/01/28 15:50:24;;;;;;;10.27;5.03;;;;;;;;;;5022861;28;20120;-79
2024/01/28 15:52:52;;;;;;;7.28;4.70;;;;;;;;;;5020295;28;20050;-80
2024/01/28 15:55:18;;;;;;;8.93;4.63;;;;;;;;;;5024529;28;20073;-79
2024/01/28 15:57:45;;;;;;;11.25;4.60;;;;;;;;;;5023993;28;20070;-81
2024/01/28 16:00:14;;;;;;;8.40;4.85;;;;;;;;;;5024956;28;20054;-81
2024/01/28 16:02:42;;;;;;;8.40;5.00;;;;;;;;;;5019178;28;20113;-80
2024/01/28 16:05:09;;;;;;;7.40;4.85;;;;;;;;;;5020510;28;20057;-81
2024/01/28 16:07:35;;;;;;;7.55;4.95;;;;;;;;;;5020511;28;20053;-80
2024/01/28 16:10:03;;;;;;;8.95;4.93;;;;;;;;;;5020780;28;20045;-81
2024/01/28 16:12:30;;;;;;;8.60;4.93;;;;;;;;;;5020840;28;20064;-80
2024/01/28 16:14:57;;;;;;;8.35;4.90;;;;;;;;;;5020666;28;20088;-81
2024/01/28 16:17:26;;;;;;;8.60;4.90;;;;;;;;;;5020661;28;20054;-80
2024/01/28 16:19:53;;;;;;;9.55;4.90;;;;;;;;;;5020366;28;20489;-80
2024/01/28 16:22:19;;;;;;;8.18;4.53;;;;;;;;;;5019546;28;20096;-80
2024/01/28 16:24:46;;;;;;;8.30;4.65;;;;;;;;;;5019538;28;20129;-81
2024/01/28 16:27:13;;;;;;;11.25;5.70;;;;;;;;;;5020168;28;20088;-82
2024/01/28 16:29:40;;;;;;;10.48;4.72;;;;;;;;;;5019510;28;20128;-81
2024/01/28 16:32:06;;;;;;;9.65;5.20;;;;;;;;;;5019828;28;20065;-82
2024/01/28 16:34:35;;;;;;;8.45;5.10;;;;;;;;;;5019818;28;20061;-81
2024/01/28 16:37:04;;;;;;;10.18;5.05;;;;;;;;;;5022847;28;20138;-80
2024/01/28 16:39:58;;;;;;;11.00;5.80;;;;;;;;;;5033440;28;20041;-81
2024/01/28 16:42:30;;;;;;;11.40;6.75;;;;;;;;;;5034152;28;20070;-80
2024/01/28 16:44:57;;;;;;;11.52;5.45;;;;;;;;;;5019155;28;20104;-80
2024/01/28 16:47:24;;;;;;;8.85;5.68;;;;;;;;;;5019859;28;20054;-79
2024/01/28 16:49:50;;;;;;;8.50;5.53;;;;;;;;;;5025509;28;20072;-81
2024/01/28 16:52:17;;;;;;;12.98;5.40;;;;;;;;;;5024410;28;20077;-81
2024/01/28 16:54:44;;;;;;;7.97;5.35;;;;;;;;;;5019491;28;20046;-81
2024/01/28 16:57:11;;;;;;;9.45;5.80;;;;;;;;;;5020828;28;20057;-81
2024/01/28 16:59:38;;;;;;;10.25;5.70;;;;;;;;;;5019169;28;20065;-81
2024/01/28 17:02:05;;;;;;;14.70;6.70;;;;;;;;;;5019409;28;20134;-81
2024/01/28 17:04:34;;;;;;;27.17;16.52;;;;;;;;;;5020440;28;20060;-81
2024/01/28 17:07:01;;;;;;;230.95;164.07;;;;;;;;;;5019802;28;20049;-81
2024/01/28 17:09:27;;;;;;;126.70;76.65;;;;;;;;;;5022763;28;20054;-83
2024/01/28 17:11:54;;;;;;;285.52;245.30;;;;;;;;;;5027335;28;20524;-81
2024/01/28 17:14:22;;;;;;;12.93;10.55;;;;;;;;;;5021350;28;20076;-79
2024/01/28 17:16:55;;;;;;;10.48;7.45;;;;;;;;;;5022161;28;20060;-79
2024/01/28 17:19:23;;;;;;;11.02;7.18;;;;;;;;;;5021518;28;20066;-80
2024/01/28 17:21:50;;;;;;;12.43;7.97;;;;;;;;;;5014612;28;20133;-80
2024/01/28 17:24:18;;;;;;;8.77;5.45;;;;;;;;;;5023158;28;20050;-80
2024/01/28 17:26:44;;;;;;;9.13;6.30;;;;;;;;;;5021671;28;20049;-80
2024/01/28 17:29:11;;;;;;;10.77;5.13;;;;;;;;;;5021572;28;20054;-79
2024/01/28 17:31:38;;;;;;;11.23;6.50;;;;;;;;;;5015014;28;20165;-80
2024/01/28 17:34:09;;;;;;;9.40;6.30;;;;;;;;;;5020355;28;20468;-81
2024/01/28 17:36:35;;;;;;;10.18;6.88;;;;;;;;;;5020524;28;20125;-80
2024/01/28 17:39:03;;;;;;;9.27;6.60;;;;;;;;;;5029380;28;20041;-82
2024/01/28 17:41:30;;;;;;;13.35;6.68;;;;;;;;;;5026777;28;20129;-80
2024/01/28 17:44:04;;;;;;;13.88;10.10;;;;;;;;;;5020435;28;20063;-80